createdAt,value
2023-03-27T00:02:49.219Z,100.00
2023-03-27T00:06:09.748Z,100.00
2023-03-27T00:09:22.323Z,100.00
2023-03-27T00:12:34.406Z,100.00
2023-03-27T00:15:47.323Z,100.00
2023-03-27T00:19:00.655Z,100.00
2023-03-27T00:22:13.095Z,100.00
2023-03-27T00:25:26.749Z,100.00
2023-03-27T00:28:39.135Z,100.00
2023-03-27T00:31:51.442Z,100.00
2023-03-27T00:35:03.711Z,100.00
2023-03-27T00:38:16.506Z,100.00
2023-03-27T00:41:29.689Z,100.00
2023-03-27T00:44:42.709Z,100.00
2023-03-27T00:47:58.557Z,100.00
2023-03-27T00:51:13.275Z,100.00
2023-03-27T00:54:31.954Z,100.00
2023-03-27T00:57:44.568Z,100.00
2023-03-27T01:01:00.155Z,100.00
2023-03-27T01:04:14.111Z,100.00
2023-03-27T01:07:28.834Z,100.00
2023-03-27T01:10:55.020Z,100.00
2023-03-27T01:14:20.221Z,100.00
2023-03-27T01:17:54.478Z,100.00
2023-03-27T01:22:15.838Z,100.00
2023-03-27T01:25:51.275Z,100.00
2023-03-27T01:29:07.797Z,100.00
2023-03-27T01:33:02.186Z,100.00
2023-03-27T01:37:04.677Z,100.00
2023-03-27T01:40:22.211Z,100.00
2023-03-27T01:43:41.073Z,100.00
2023-03-27T01:46:58.850Z,100.00
2023-03-27T01:50:21.190Z,100.00
2023-03-27T01:53:37.513Z,100.00
2023-03-27T01:56:55.921Z,100.00
2023-03-27T02:00:19.415Z,100.00
2023-03-27T02:03:35.702Z,100.00
2023-03-27T02:06:52.457Z,100.00
2023-03-27T02:10:09.523Z,100.00
2023-03-27T02:13:28.590Z,100.00
2023-03-27T02:16:46.551Z,100.00
2023-03-27T02:20:05.973Z,100.00
2023-03-27T02:23:18.744Z,100.00
2023-03-27T02:26:31.407Z,100.00
2023-03-27T02:30:00.320Z,100.00
2023-03-27T02:33:20.089Z,100.00
2023-03-27T02:36:41.630Z,100.00
2023-03-27T02:40:00.854Z,100.00
2023-03-27T02:43:19.272Z,100.00
2023-03-27T02:46:36.597Z,100.00
2023-03-27T02:49:53.132Z,100.00
2023-03-27T02:53:09.412Z,100.00
2023-03-27T02:56:24.379Z,100.00
2023-03-27T02:59:42.835Z,100.00
2023-03-27T03:02:59.208Z,100.00
2023-03-27T03:06:14.469Z,100.00
2023-03-27T03:09:28.174Z,100.00
2023-03-27T03:12:40.366Z,100.00
2023-03-27T03:15:52.854Z,100.00
2023-03-27T03:19:05.112Z,100.00
2023-03-27T03:22:18.831Z,100.00
2023-03-27T03:25:31.500Z,100.00
2023-03-27T03:29:00.744Z,100.00
2023-03-27T03:31:58.126Z,100.00
2023-03-27T03:35:13.869Z,100.00
2023-03-27T03:38:26.474Z,100.00
2023-03-27T03:41:39.528Z,100.00
2023-03-27T03:44:51.650Z,100.00
2023-03-27T03:48:05.777Z,100.00
2023-03-27T03:51:18.448Z,100.00
2023-03-27T03:54:30.891Z,100.00
2023-03-27T03:57:43.033Z,100.00
2023-03-27T04:00:57.939Z,100.00
2023-03-27T04:04:24.030Z,100.00
2023-03-27T04:07:45.965Z,100.00
2023-03-27T04:11:16.810Z,100.00
2023-03-27T04:14:34.140Z,100.00
2023-03-27T04:17:48.786Z,100.00
2023-03-27T04:21:00.955Z,100.00
2023-03-27T04:24:14.526Z,100.00
2023-03-27T04:27:30.643Z,100.00
2023-03-27T04:30:45.104Z,100.00
2023-03-27T04:34:14.849Z,100.00
2023-03-27T04:37:38.101Z,100.00
2023-03-27T04:40:57.890Z,100.00
2023-03-27T04:44:11.680Z,100.00
2023-03-27T04:47:25.848Z,100.00
2023-03-27T04:50:40.742Z,100.00
2023-03-27T04:53:56.648Z,100.00
2023-03-27T04:57:10.190Z,100.00
2023-03-27T05:00:25.596Z,100.00
2023-03-27T05:03:52.660Z,100.00
2023-03-27T05:07:10.456Z,100.00
2023-03-27T05:10:23.482Z,100.00
2023-03-27T05:13:36.494Z,100.00
2023-03-27T05:16:50.564Z,100.00
2023-03-27T05:20:04.603Z,100.00
2023-03-27T05:23:17.842Z,100.00
2023-03-27T05:26:31.174Z,100.00
2023-03-27T05:29:46.741Z,100.00
2023-03-27T05:32:59.580Z,100.00
2023-03-27T05:36:19.197Z,100.00
2023-03-27T05:39:31.261Z,100.00
2023-03-27T05:42:49.712Z,100.00
2023-03-27T05:46:02.041Z,100.00
2023-03-27T05:49:15.755Z,100.00
2023-03-27T05:52:29.292Z,100.00
2023-03-27T05:55:42.217Z,100.00
2023-03-27T05:58:55.060Z,100.00
2023-03-27T06:02:09.225Z,100.00
2023-03-27T06:05:24.171Z,100.00
2023-03-27T06:08:37.096Z,100.00
2023-03-27T06:11:51.265Z,100.00
2023-03-27T06:15:05.335Z,100.00
2023-03-27T06:18:19.462Z,100.00
2023-03-27T06:21:31.952Z,100.00
2023-03-27T06:24:46.099Z,100.00
2023-03-27T06:28:01.282Z,100.00
2023-03-27T06:31:15.023Z,100.00
2023-03-27T06:34:45.934Z,100.00
2023-03-27T06:38:19.197Z,100.00
2023-03-27T06:41:31.427Z,100.00
2023-03-27T06:44:46.349Z,100.00
2023-03-27T06:48:21.435Z,100.00
2023-03-27T06:51:34.291Z,100.00
2023-03-27T06:54:46.620Z,100.00
2023-03-27T06:58:01.782Z,100.00
2023-03-27T07:01:14.833Z,100.00
2023-03-27T07:04:31.795Z,100.00
2023-03-27T07:14:16.100Z,100.00
2023-03-27T07:17:38.241Z,100.00
2023-03-27T07:20:48.350Z,100.00
2023-03-27T07:24:02.204Z,100.00
2023-03-27T07:27:16.752Z,100.00
2023-03-27T07:30:30.489Z,100.00
2023-03-27T07:33:43.144Z,100.00
2023-03-27T07:36:57.554Z,100.00
2023-03-27T07:40:13.487Z,100.00
2023-03-27T07:43:27.610Z,100.00
2023-03-27T07:46:40.360Z,100.00
2023-03-27T07:49:53.116Z,100.00
2023-03-27T07:53:07.317Z,100.00
2023-03-27T07:56:20.642Z,100.00
2023-03-27T07:59:33.585Z,100.00
2023-03-27T08:02:54.753Z,100.00
2023-03-27T08:06:08.222Z,100.00
2023-03-27T08:09:20.539Z,100.00
2023-03-27T08:12:33.754Z,100.00
2023-03-27T08:15:47.005Z,100.00
2023-03-27T08:19:03.465Z,100.00
2023-03-27T08:22:17.126Z,100.00
2023-03-27T08:25:49.198Z,100.00
2023-03-27T08:29:02.098Z,100.00
2023-03-27T08:32:16.099Z,100.00
2023-03-27T08:35:29.059Z,100.00
2023-03-27T08:38:43.438Z,100.00
2023-03-27T08:42:03.973Z,100.00
2023-03-27T08:45:27.431Z,100.00
2023-03-27T08:48:47.106Z,100.00
2023-03-27T08:52:04.293Z,100.00
2023-03-27T08:55:19.113Z,100.00
2023-03-27T08:58:42.576Z,100.00
2023-03-27T09:02:07.051Z,100.00
2023-03-27T09:05:26.371Z,100.00
2023-03-27T09:08:51.037Z,100.00
2023-03-27T09:12:10.205Z,100.00
2023-03-27T09:15:27.219Z,100.00
2023-03-27T09:18:44.401Z,100.00
2023-03-27T09:22:02.813Z,100.00
2023-03-27T09:25:31.193Z,100.00
2023-03-27T09:28:53.736Z,100.00
2023-03-27T09:32:08.096Z,100.00
2023-03-27T09:35:24.936Z,100.00
2023-03-27T09:38:42.361Z,100.00
2023-03-27T09:41:59.865Z,100.00
2023-03-27T09:45:18.920Z,100.00
2023-03-27T09:48:52.052Z,100.00
2023-03-27T09:52:07.836Z,100.00
2023-03-27T09:55:34.888Z,100.00
2023-03-27T09:58:52.214Z,100.00
2023-03-27T10:02:16.287Z,100.00
2023-03-27T10:05:30.363Z,100.00
2023-03-27T10:08:50.198Z,100.00
2023-03-27T10:12:21.592Z,100.00
2023-03-27T10:15:42.717Z,100.00
2023-03-27T10:19:00.107Z,100.00
2023-03-27T10:22:23.780Z,100.00
2023-03-27T10:25:42.198Z,100.00
2023-03-27T10:29:05.506Z,100.00
2023-03-27T10:32:22.643Z,100.00
2023-03-27T10:35:47.910Z,100.00
2023-03-27T10:39:08.357Z,100.00
2023-03-27T10:42:26.919Z,100.00
2023-03-27T10:45:44.504Z,100.00
2023-03-27T10:49:04.965Z,100.00
2023-03-27T10:52:27.596Z,100.00
2023-03-27T10:55:59.987Z,100.00
2023-03-27T10:59:23.408Z,100.00
2023-03-27T11:02:40.092Z,100.00
2023-03-27T11:05:54.983Z,100.00
2023-03-27T11:09:16.216Z,100.00
2023-03-27T11:12:32.109Z,100.00
2023-03-27T11:15:49.797Z,100.00
2023-03-27T11:19:22.702Z,100.00
2023-03-27T11:23:01.202Z,100.00
2023-03-27T11:26:20.201Z,100.00
2023-03-27T11:29:37.712Z,100.00
2023-03-27T11:32:57.321Z,100.00
2023-03-27T11:36:37.821Z,100.00
2023-03-27T11:40:08.005Z,100.00
2023-03-27T11:43:23.058Z,100.00
2023-03-27T11:46:51.869Z,100.00
2023-03-27T11:50:35.925Z,100.00
2023-03-27T11:54:20.676Z,100.00
2023-03-27T11:57:40.103Z,100.00
2023-03-27T12:01:02.074Z,100.00
2023-03-27T12:04:36.886Z,100.00
2023-03-27T12:08:16.344Z,100.00
2023-03-27T12:11:33.684Z,100.00
2023-03-27T12:15:05.551Z,100.00
2023-03-27T12:18:36.124Z,100.00
2023-03-27T12:21:59.552Z,100.00
2023-03-27T12:25:37.941Z,100.00
2023-03-27T12:29:24.447Z,100.00
2023-03-27T12:33:28.173Z,100.00
2023-03-27T12:36:46.049Z,100.00
2023-03-27T12:40:06.724Z,100.00
2023-03-27T12:43:36.974Z,100.00
2023-03-27T12:47:24.273Z,100.00
2023-03-27T12:50:47.135Z,100.00
2023-03-27T12:54:02.223Z,100.00
2023-03-27T12:57:23.021Z,100.00
2023-03-27T13:00:38.036Z,100.00
2023-03-27T13:04:28.425Z,100.00
2023-03-27T13:07:49.325Z,100.00
2023-03-27T13:11:10.632Z,100.00
2023-03-27T13:14:48.406Z,100.00
2023-03-27T13:18:25.658Z,100.00
2023-03-27T13:21:45.391Z,100.00
2023-03-27T13:25:29.713Z,100.00
2023-03-27T13:28:46.667Z,100.00
2023-03-27T13:32:23.521Z,100.00
2023-03-27T13:35:51.287Z,100.00
2023-03-27T13:39:26.896Z,100.00
2023-03-27T13:42:49.092Z,100.00
2023-03-27T13:46:05.978Z,100.00
2023-03-27T13:49:42.925Z,100.00
2023-03-27T13:53:44.230Z,100.00
2023-03-27T13:57:10.162Z,100.00
2023-03-27T14:01:04.134Z,100.00
2023-03-27T14:04:48.393Z,100.00
2023-03-27T14:08:18.108Z,99.05
2023-03-27T14:11:48.845Z,97.96
2023-03-27T14:15:27.289Z,97.44
2023-03-27T14:19:32.700Z,97.07
2023-03-27T14:22:57.127Z,95.82
2023-03-27T14:26:18.809Z,96.15
2023-03-27T14:29:32.756Z,95.35
2023-03-27T14:32:58.536Z,95.58
2023-03-27T14:36:16.749Z,96.38
2023-03-27T14:39:33.989Z,98.94
2023-03-27T14:42:54.137Z,98.03
2023-03-27T14:46:11.694Z,97.85
2023-03-27T14:49:27.926Z,96.24
2023-03-27T14:52:43.905Z,94.35
2023-03-27T14:56:00.492Z,93.81
2023-03-27T14:59:25.854Z,90.81
2023-03-27T15:02:44.313Z,90.38
2023-03-27T15:06:10.200Z,88.79
2023-03-27T15:09:24.328Z,88.73
2023-03-27T15:12:55.414Z,88.77
2023-03-27T15:16:09.828Z,89.56
2023-03-27T15:19:26.831Z,87.13
2023-03-27T15:22:43.414Z,86.68
2023-03-27T15:26:00.853Z,86.29
2023-03-27T15:29:19.392Z,84.73
2023-03-27T15:32:38.647Z,84.89
2023-03-27T15:35:56.246Z,83.41
2023-03-27T15:39:11.873Z,82.82
2023-03-27T15:42:26.457Z,82.90
2023-03-27T15:45:46.942Z,82.61
2023-03-27T15:48:59.387Z,84.63
2023-03-27T15:52:36.823Z,84.19
2023-03-27T15:55:54.455Z,83.47
2023-03-27T15:59:10.720Z,82.58
2023-03-27T16:02:25.445Z,81.80
2023-03-27T16:05:38.825Z,82.22
2023-03-27T16:08:52.573Z,82.32
2023-03-27T16:12:06.105Z,81.49
2023-03-27T16:15:41.947Z,81.07
2023-03-27T16:18:54.999Z,81.98
2023-03-27T16:22:07.685Z,83.44
2023-03-27T16:25:21.218Z,82.70
2023-03-27T16:28:33.980Z,84.13
2023-03-27T16:31:47.403Z,81.97
2023-03-27T16:35:00.091Z,80.57
2023-03-27T16:38:13.951Z,80.98
2023-03-27T16:41:26.562Z,80.55
2023-03-27T16:44:39.065Z,79.83
2023-03-27T16:47:54.807Z,80.97
2023-03-27T16:51:07.574Z,78.73
2023-03-27T16:54:19.869Z,78.75
2023-03-27T16:57:32.410Z,78.64
2023-03-27T17:00:44.820Z,79.43
2023-03-27T17:03:59.708Z,80.72
2023-03-27T17:07:12.732Z,81.10
2023-03-27T17:10:25.486Z,80.71
2023-03-27T17:13:40.791Z,80.60
2023-03-27T17:16:53.134Z,79.26
2023-03-27T17:20:06.305Z,79.23
2023-03-27T17:23:20.500Z,79.71
2023-03-27T17:26:35.569Z,78.47
2023-03-27T17:29:48.114Z,77.44
2023-03-27T17:33:00.604Z,78.13
2023-03-27T17:36:26.853Z,79.68
2023-03-27T17:39:35.039Z,78.18
2023-03-27T17:42:47.562Z,77.20
2023-03-27T17:46:02.178Z,76.96
2023-03-27T17:49:15.039Z,75.74
2023-03-27T17:52:27.862Z,75.21
2023-03-27T17:55:42.869Z,74.10
2023-03-27T17:58:56.757Z,74.52
2023-03-27T18:02:12.011Z,72.96
2023-03-27T18:05:24.879Z,71.88
2023-03-27T18:08:37.508Z,71.16
2023-03-27T18:11:49.874Z,70.63
2023-03-27T18:15:02.678Z,70.98
2023-03-27T18:18:15.495Z,69.92
2023-03-27T18:21:28.126Z,71.24
2023-03-27T18:24:41.079Z,69.64
2023-03-27T18:27:56.058Z,71.25
2023-03-27T18:31:12.167Z,71.86
2023-03-27T18:34:25.803Z,71.20
2023-03-27T18:37:38.643Z,70.44
2023-03-27T18:40:51.538Z,68.76
2023-03-27T18:44:03.980Z,69.69
2023-03-27T18:47:16.673Z,69.88
2023-03-27T18:50:29.202Z,69.63
2023-03-27T18:53:42.210Z,68.16
2023-03-27T18:56:54.359Z,69.53
2023-03-27T19:00:09.289Z,69.77
2023-03-27T19:03:24.686Z,69.93
2023-03-27T19:06:38.021Z,69.61
2023-03-27T19:09:50.415Z,69.76
2023-03-27T19:13:03.637Z,70.22
2023-03-27T19:16:23.837Z,71.26
2023-03-27T19:19:41.511Z,72.28
2023-03-27T19:23:01.634Z,73.14
2023-03-27T19:26:21.977Z,72.84
2023-03-27T19:29:34.959Z,73.17
2023-03-27T19:32:48.276Z,72.46
2023-03-27T19:36:01.774Z,73.01
2023-03-27T19:39:14.401Z,72.47
2023-03-27T19:42:28.739Z,72.71
2023-03-27T19:45:41.361Z,73.57
2023-03-27T19:48:56.034Z,75.07
2023-03-27T19:52:28.489Z,73.27
2023-03-27T19:55:52.688Z,74.94
2023-03-27T19:59:11.265Z,75.30
2023-03-27T20:02:24.641Z,75.26
2023-03-27T20:05:37.489Z,75.58
2023-03-27T20:08:50.210Z,75.15
2023-03-27T20:12:03.361Z,75.73
2023-03-27T20:15:17.935Z,75.18
2023-03-27T20:18:32.663Z,74.93
2023-03-27T20:21:46.913Z,75.29
2023-03-27T20:25:00.852Z,76.10
2023-03-27T20:28:15.731Z,76.00
2023-03-27T20:31:28.190Z,77.10
2023-03-27T20:34:40.975Z,76.02
2023-03-27T20:37:56.570Z,76.45
2023-03-27T20:41:13.440Z,76.74
2023-03-27T20:44:27.715Z,75.95
2023-03-27T20:47:43.447Z,74.49
2023-03-27T20:50:58.396Z,76.35
2023-03-27T20:54:13.087Z,75.09
2023-03-27T20:57:27.758Z,75.58
2023-03-27T21:00:40.707Z,76.09
2023-03-27T21:03:53.944Z,75.47
2023-03-27T21:07:08.576Z,77.12
2023-03-27T21:10:21.583Z,76.36
2023-03-27T21:13:34.586Z,76.76
2023-03-27T21:16:46.933Z,76.65
2023-03-27T21:19:59.721Z,76.29
2023-03-27T21:23:19.437Z,76.14
2023-03-27T21:26:31.813Z,76.81
2023-03-27T21:29:44.888Z,77.04
2023-03-27T21:32:57.237Z,77.74
2023-03-27T21:36:12.990Z,77.42
2023-03-27T21:39:25.661Z,78.83
2023-03-27T21:42:38.082Z,77.25
2023-03-27T21:45:51.441Z,77.19
2023-03-27T21:49:03.854Z,78.18
2023-03-27T21:52:16.433Z,77.71
2023-03-27T21:55:28.742Z,78.13
2023-03-27T21:58:41.540Z,78.18
2023-03-27T22:01:53.903Z,78.26
2023-03-27T22:05:06.510Z,78.61
2023-03-27T22:08:19.520Z,79.76
2023-03-27T22:11:31.682Z,78.51
2023-03-27T22:14:44.122Z,78.93
2023-03-27T22:17:56.981Z,80.17
2023-03-27T22:21:22.330Z,80.77
2023-03-27T22:24:35.185Z,80.03
2023-03-27T22:27:47.376Z,80.04
2023-03-27T22:31:00.817Z,79.72
2023-03-27T22:34:13.203Z,80.06
2023-03-27T22:37:25.746Z,80.97
2023-03-27T22:40:37.990Z,81.44
2023-03-27T22:43:50.301Z,80.58
2023-03-27T22:47:03.086Z,80.33
2023-03-27T22:50:16.821Z,81.44
2023-03-27T22:53:32.022Z,79.91
2023-03-27T22:56:44.143Z,81.09
2023-03-27T22:59:56.925Z,81.34
2023-03-27T23:03:09.396Z,80.62
2023-03-27T23:06:27.391Z,81.26
2023-03-27T23:09:39.690Z,82.18
2023-03-27T23:12:51.987Z,81.46
2023-03-27T23:16:04.617Z,81.78
2023-03-27T23:19:16.712Z,80.88
2023-03-27T23:22:29.029Z,80.54
2023-03-27T23:25:42.567Z,80.91
2023-03-27T23:28:55.080Z,81.01
2023-03-27T23:32:07.382Z,80.89
2023-03-27T23:35:20.511Z,80.79
2023-03-27T23:38:33.251Z,81.21
2023-03-27T23:41:46.234Z,80.90
2023-03-27T23:44:58.364Z,81.29
2023-03-27T23:48:11.182Z,81.08
2023-03-27T23:51:24.207Z,80.88
2023-03-27T23:54:36.950Z,80.83
2023-03-27T23:57:49.234Z,80.95
